Portada
METAR-TAF:

METAR-TAF

Aeropuertos :

Marshall County Airport

Lacon, Illinois, Estados Unidos

latitud: 41-01-09N, longitud: 089-23-11W, altitud: 173 m

Observación

El informe se hizo hace 33 minutos, a las 07:35 UTC
Viento calma
Temperatura 12°C
Humedad 82%
Presión 1024 hPa
Visibilidad: 16.1 km
Cielo despejado

METAR: KC75 310735Z AUTO 00000KT 10SM CLR 12/09 A3025 RMK AO2 T01190088

Hora: 03:08 (08:08 UTC)


TAF: falta

Observaciones y pronósticos meteorológicos de más de 4000 aeropuertos (mensajes METAR y TAF).

Los puntos amarillos y rojos representan las estaciones disponibles.

Ponga el ratón en el punto deseado para ver el nombre de la estación.

Haga clic para ver las observaciones y los pronósticos meteorológicos.

Para cambiar el mapa : haga clic en los botones verdes con una cruz de color negro para hacer un zoom, en el botón verde con un guión para alejar o en las flechas verdes para mapas adyacentes.


METAR-TAF: